Time;durP1;ratioP1;P1;durP2;ratioP2;P2;SDS_P1;SDS_P2;PMS_P1;PMS_P2;Temp;Humidity;BMP_temperature;BMP_pressure;BME280_temperature;BME280_humidity;BME280_pressure;Samples;Min_cycle;Max_cycle;Signal;HPM_P1;HPM_P2
2023/01/08 00:02:35;;;;;;;62.30;39.58;;;3.20;99.90;;;;;;5033756;28;20221;-85
2023/01/08 00:05:02;;;;;;;56.40;37.55;;;3.20;99.90;;;;;;5042168;28;20200;-87
2023/01/08 00:07:31;;;;;;;65.68;43.40;;;3.20;99.90;;;;;;5048939;22;20314;-86
2023/01/08 00:10:02;;;;;;;58.65;41.33;;;3.20;99.90;;;;;;5024476;28;20196;-85
2023/01/08 00:12:29;;;;;;;63.85;40.55;;;3.10;99.90;;;;;;5018584;28;20200;-85
2023/01/08 00:14:56;;;;;;;62.28;37.35;;;3.10;99.90;;;;;;5010679;28;20261;-85
2023/01/08 00:17:24;;;;;;;53.15;34.35;;;3.20;99.90;;;;;;5019805;28;20198;-87
2023/01/08 00:19:56;;;;;;;60.72;36.30;;;3.10;99.90;;;;;;5023320;28;20211;-84
2023/01/08 00:22:23;;;;;;;44.97;31.40;;;3.20;99.90;;;;;;5017980;28;20257;-88
2023/01/08 00:24:50;;;;;;;53.67;34.25;;;3.20;99.90;;;;;;5034751;28;20212;-84
2023/01/08 00:27:22;;;;;;;52.75;33.03;;;3.20;99.90;;;;;;5041488;28;20199;-88
2023/01/08 00:29:51;;;;;;;52.30;36.50;;;3.20;99.90;;;;;;5016318;28;20202;-87
2023/01/08 00:32:22;;;;;;;53.15;37.35;;;3.20;99.90;;;;;;5014245;28;20213;-85
2023/01/08 00:34:53;;;;;;;50.65;36.05;;;3.20;99.90;;;;;;5027552;28;20207;-88
2023/01/08 00:37:20;;;;;;;47.65;34.40;;;3.30;99.90;;;;;;5023384;28;20216;-85
2023/01/08 00:39:49;;;;;;;53.00;34.13;;;3.20;99.90;;;;;;5005546;28;20211;-84
2023/01/08 00:42:16;;;;;;;50.40;34.47;;;3.10;99.90;;;;;;5008281;28;20223;-88
2023/01/08 00:44:49;;;;;;;56.92;35.38;;;3.20;99.90;;;;;;5015211;28;20210;-88
2023/01/08 00:47:15;;;;;;;49.22;33.47;;;3.10;99.90;;;;;;5015645;28;20263;-86
2023/01/08 00:49:59;;;;;;;46.13;33.80;;;3.20;99.90;;;;;;5022142;28;20212;-86
2023/01/08 00:52:33;;;;;;;51.92;33.60;;;3.20;99.90;;;;;;5011922;28;20248;-86
2023/01/08 00:55:00;;;;;;;46.92;30.70;;;3.30;99.90;;;;;;5014722;28;20218;-90
2023/01/08 00:57:38;;;;;;;47.85;30.85;;;3.20;99.90;;;;;;5032603;28;20795;-84
2023/01/08 01:00:14;;;;;;;47.40;29.63;;;3.10;99.90;;;;;;5031899;28;20467;-90
2023/01/08 01:02:46;;;;;;;41.42;29.75;;;3.00;99.90;;;;;;5027994;28;20194;-86
2023/01/08 01:05:21;;;;;;;44.95;31.85;;;3.10;99.90;;;;;;5415874;22;20234;-86
2023/01/08 01:07:49;;;;;;;55.15;31.88;;;3.10;99.90;;;;;;5196555;22;20237;-87
2023/01/08 01:10:18;;;;;;;55.95;31.65;;;3.20;99.90;;;;;;5093916;22;20253;-89
2023/01/08 01:12:46;;;;;;;45.17;29.52;;;3.10;99.90;;;;;;5187246;22;20270;-87
2023/01/08 01:15:17;;;;;;;48.20;30.85;;;3.10;99.90;;;;;;5176271;22;20272;-88
2023/01/08 01:17:45;;;;;;;46.28;33.47;;;3.20;99.90;;;;;;5289597;22;20213;-89
2023/01/08 01:20:15;;;;;;;52.60;34.67;;;3.20;99.90;;;;;;5099716;22;20225;-87
2023/01/08 01:22:44;;;;;;;47.33;32.70;;;3.10;99.90;;;;;;5046695;28;20230;-87
2023/01/08 01:25:11;;;;;;;49.03;34.47;;;3.10;99.90;;;;;;5284259;22;20235;-90
2023/01/08 01:27:43;;;;;;;45.92;31.02;;;3.10;99.90;;;;;;5018571;28;20519;-88
2023/01/08 01:30:22;;;;;;;53.95;35.58;;;3.00;99.90;;;;;;5006627;28;20224;-85
2023/01/08 01:32:52;;;;;;;51.40;33.72;;;3.00;99.90;;;;;;4999427;28;20191;-86
2023/01/08 01:35:21;;;;;;;53.60;35.25;;;2.90;99.90;;;;;;5005623;28;20492;-89
2023/01/08 01:37:48;;;;;;;52.50;35.15;;;3.10;99.90;;;;;;4993821;28;20222;-85
2023/01/08 01:40:17;;;;;;;58.92;36.92;;;3.10;99.90;;;;;;5229386;22;20246;-85
2023/01/08 01:42:47;;;;;;;53.45;34.83;;;3.10;99.90;;;;;;5037685;28;20641;-85
2023/01/08 01:45:20;;;;;;;63.10;38.10;;;2.90;99.90;;;;;;5032504;28;20547;-84
2023/01/08 01:48:01;;;;;;;58.10;37.78;;;3.00;99.90;;;;;;5021762;28;20203;-87
2023/01/08 01:50:36;;;;;;;54.47;38.03;;;3.00;99.90;;;;;;5028670;28;20247;-86
2023/01/08 01:53:15;;;;;;;57.55;39.33;;;3.10;99.90;;;;;;5027391;28;20210;-84
2023/01/08 01:55:45;;;;;;;58.05;39.33;;;3.10;99.90;;;;;;5032993;28;20206;-87
2023/01/08 01:58:29;;;;;;;65.32;42.70;;;3.10;99.90;;;;;;5022213;28;20245;-86
2023/01/08 02:01:03;;;;;;;56.67;41.20;;;3.00;99.90;;;;;;5022013;28;20214;-83
2023/01/08 02:03:36;;;;;;;65.55;42.00;;;3.00;99.90;;;;;;5026359;28;20237;-84
2023/01/08 02:06:23;;;;;;;69.35;40.45;;;3.00;99.90;;;;;;5028318;28;20229;-86
2023/01/08 02:09:30;;;;;;;67.63;41.85;;;3.00;99.90;;;;;;5063539;22;20223;-89
2023/01/08 02:12:15;;;;;;;71.28;42.83;;;3.00;99.90;;;;;;4992768;28;20435;-87
2023/01/08 02:15:10;;;;;;;68.22;44.20;;;3.00;99.90;;;;;;5011114;28;20214;-84
2023/01/08 02:17:46;;;;;;;68.50;44.78;;;2.90;99.90;;;;;;5011653;28;20380;-83
2023/01/08 02:20:25;;;;;;;68.53;45.35;;;2.90;99.90;;;;;;5005447;28;20200;-85
2023/01/08 02:22:52;;;;;;;70.07;45.25;;;2.90;99.90;;;;;;5013819;28;20258;-85
2023/01/08 02:25:59;;;;;;;72.28;47.28;;;2.90;99.90;;;;;;5005495;28;20249;-85
2023/01/08 02:28:27;;;;;;;69.70;45.67;;;2.90;99.90;;;;;;5008318;28;20214;-86
2023/01/08 02:30:56;;;;;;;75.53;47.78;;;2.90;99.90;;;;;;5006907;28;20220;-85
2023/01/08 02:33:27;;;;;;;73.43;47.78;;;2.90;99.90;;;;;;5020371;28;20199;-86
2023/01/08 02:36:33;;;;;;;72.65;49.88;;;2.70;99.90;;;;;;5007435;28;20270;-86
2023/01/08 02:39:10;;;;;;;72.25;46.67;;;2.70;99.90;;;;;;5007319;28;20195;-85
2023/01/08 02:41:55;;;;;;;72.85;51.35;;;2.70;99.90;;;;;;5008646;28;20208;-87
2023/01/08 02:44:55;;;;;;;81.57;48.13;;;2.80;99.90;;;;;;5007128;28;20226;-86
2023/01/08 02:47:31;;;;;;;70.80;48.10;;;2.70;99.90;;;;;;5009715;28;20550;-85
2023/01/08 02:50:20;;;;;;;71.13;46.17;;;2.70;99.90;;;;;;5025555;28;20191;-83
2023/01/08 02:53:08;;;;;;;73.90;47.95;;;2.80;99.90;;;;;;5010626;28;20443;-82
2023/01/08 02:55:38;;;;;;;76.10;47.30;;;2.80;99.90;;;;;;5019853;28;20208;-82
2023/01/08 02:58:06;;;;;;;78.05;47.63;;;2.60;99.90;;;;;;5020918;28;20257;-82
2023/01/08 03:00:33;;;;;;;68.63;48.78;;;2.80;99.90;;;;;;5006481;28;20205;-82
2023/01/08 03:03:18;;;;;;;78.03;52.30;;;2.70;99.90;;;;;;5012996;28;20206;-82
2023/01/08 03:05:54;;;;;;;66.28;45.30;;;2.70;99.90;;;;;;4999620;28;20484;-86
2023/01/08 03:08:22;;;;;;;66.70;48.85;;;2.90;99.90;;;;;;5010548;28;20253;-85
2023/01/08 03:10:54;;;;;;;74.70;47.20;;;2.80;99.90;;;;;;5026452;28;20211;-83
2023/01/08 03:13:29;;;;;;;66.43;44.85;;;2.70;99.90;;;;;;5000310;28;20272;-84
2023/01/08 03:16:02;;;;;;;68.47;43.80;;;2.80;99.90;;;;;;5007026;28;20202;-83
2023/01/08 03:18:38;;;;;;;77.15;47.85;;;3.00;99.90;;;;;;5018980;28;20213;-83
2023/01/08 03:21:05;;;;;;;71.25;46.33;;;3.00;99.90;;;;;;4999399;28;20199;-83
2023/01/08 03:23:35;;;;;;;69.03;45.17;;;3.00;99.90;;;;;;5007868;28;20271;-83
2023/01/08 03:26:05;;;;;;;77.35;48.15;;;3.00;99.90;;;;;;5004281;28;20519;-85
2023/01/08 03:28:43;;;;;;;76.97;47.22;;;3.00;99.90;;;;;;5021603;28;20214;-84
2023/01/08 03:31:14;;;;;;;72.00;47.78;;;3.00;99.90;;;;;;5004434;28;20233;-83
2023/01/08 03:33:44;;;;;;;71.47;46.20;;;3.00;99.90;;;;;;5004200;28;20280;-84
2023/01/08 03:36:18;;;;;;;62.40;46.05;;;3.00;99.90;;;;;;5007759;28;20252;-83
2023/01/08 03:39:09;;;;;;;73.80;47.85;;;3.00;99.90;;;;;;5004004;28;20215;-84
2023/01/08 03:41:36;;;;;;;71.82;48.50;;;2.90;99.90;;;;;;5007087;28;20196;-84
2023/01/08 03:44:04;;;;;;;67.32;47.63;;;2.90;99.90;;;;;;5022200;28;20227;-87
2023/01/08 03:46:36;;;;;;;82.57;51.33;;;2.90;99.90;;;;;;5008559;28;20642;-90
2023/01/08 03:49:05;;;;;;;83.82;52.80;;;2.90;99.90;;;;;;5011452;28;20204;-85
2023/01/08 03:52:00;;;;;;;72.30;49.15;;;2.90;99.90;;;;;;5016977;28;20288;-84
2023/01/08 03:54:31;;;;;;;76.13;51.45;;;2.80;99.90;;;;;;5012516;28;20204;-85
2023/01/08 03:57:01;;;;;;;77.85;52.03;;;2.80;99.90;;;;;;5009168;28;20202;-87
2023/01/08 03:59:28;;;;;;;83.38;54.08;;;2.80;99.90;;;;;;5013329;28;20264;-87
2023/01/08 04:01:55;;;;;;;92.65;54.53;;;2.80;99.90;;;;;;5023927;28;20271;-86
2023/01/08 04:04:22;;;;;;;75.43;52.92;;;2.70;99.90;;;;;;5011284;28;20273;-88
2023/01/08 04:06:52;;;;;;;83.15;51.25;;;2.70;99.90;;;;;;5014334;28;20274;-84
2023/01/08 04:09:18;;;;;;;75.93;49.35;;;2.70;99.90;;;;;;4999460;28;20274;-89
2023/01/08 04:11:45;;;;;;;74.30;47.53;;;2.70;99.90;;;;;;5009207;28;20255;-88
2023/01/08 04:14:13;;;;;;;79.63;51.75;;;2.90;99.90;;;;;;5019014;28;20706;-87
2023/01/08 04:16:41;;;;;;;89.60;51.63;;;2.80;99.90;;;;;;5027541;28;20603;-87
2023/01/08 04:19:12;;;;;;;81.05;50.63;;;2.70;99.90;;;;;;5028237;28;20241;-88
2023/01/08 04:21:40;;;;;;;77.63;51.70;;;2.80;99.90;;;;;;5002563;28;20270;-86
2023/01/08 04:24:07;;;;;;;70.50;49.85;;;2.80;99.90;;;;;;5006680;28;20243;-85
2023/01/08 04:26:34;;;;;;;79.57;49.42;;;2.80;99.90;;;;;;5000297;28;20285;-86
2023/01/08 04:29:03;;;;;;;75.05;51.00;;;2.90;99.90;;;;;;4998108;28;20211;-84
2023/01/08 04:31:31;;;;;;;75.47;50.75;;;2.90;99.90;;;;;;5003119;28;20550;-84
2023/01/08 04:33:59;;;;;;;75.38;53.35;;;3.00;99.90;;;;;;5000934;28;20528;-85
2023/01/08 04:36:26;;;;;;;70.78;47.65;;;2.90;99.90;;;;;;5003280;28;20798;-84
2023/01/08 04:38:54;;;;;;;79.50;48.00;;;2.90;99.90;;;;;;5003206;28;20211;-86
2023/01/08 04:41:21;;;;;;;88.32;50.55;;;2.90;99.90;;;;;;5011779;28;20212;-85
2023/01/08 04:43:51;;;;;;;79.88;48.70;;;3.00;99.90;;;;;;5002189;28;20203;-86
2023/01/08 04:46:18;;;;;;;70.97;48.58;;;3.00;99.90;;;;;;5000871;28;20199;-86
2023/01/08 04:48:47;;;;;;;74.53;47.97;;;3.00;99.90;;;;;;5000498;28;20242;-85
2023/01/08 04:51:14;;;;;;;71.57;47.22;;;3.00;99.90;;;;;;5002812;28;20265;-86
2023/01/08 04:53:41;;;;;;;74.85;49.42;;;3.10;99.90;;;;;;5009803;28;20397;-85
2023/01/08 04:56:10;;;;;;;66.45;44.15;;;3.20;99.90;;;;;;5016378;28;20203;-86
2023/01/08 04:58:38;;;;;;;76.25;46.85;;;3.20;99.90;;;;;;5011655;28;20281;-85
2023/01/08 05:01:11;;;;;;;72.40;47.08;;;3.20;99.90;;;;;;5006284;28;20765;-86
2023/01/08 05:03:38;;;;;;;63.45;44.90;;;3.30;99.90;;;;;;5014921;28;20409;-86
2023/01/08 05:06:06;;;;;;;70.20;46.25;;;3.10;99.90;;;;;;5018141;28;20219;-85
2023/01/08 05:08:34;;;;;;;65.13;42.75;;;3.20;99.90;;;;;;5001664;28;20267;-88
2023/01/08 05:11:03;;;;;;;67.78;46.15;;;3.20;99.90;;;;;;5031495;28;20244;-84
2023/01/08 05:13:30;;;;;;;68.75;46.60;;;3.20;99.90;;;;;;5004923;28;20194;-87
2023/01/08 05:15:59;;;;;;;62.45;43.72;;;3.20;99.90;;;;;;5001218;28;20275;-86
2023/01/08 05:18:28;;;;;;;64.88;40.70;;;3.20;99.90;;;;;;4994404;28;20223;-86
2023/01/08 05:21:00;;;;;;;66.85;45.58;;;3.20;99.90;;;;;;4999935;28;20217;-87
2023/01/08 05:23:28;;;;;;;61.22;43.40;;;3.20;99.90;;;;;;5000330;28;20211;-85
2023/01/08 05:26:00;;;;;;;59.42;40.78;;;3.20;99.90;;;;;;5000478;28;20282;-85
2023/01/08 05:28:27;;;;;;;60.53;43.75;;;3.20;99.90;;;;;;5015911;28;20226;-85
2023/01/08 05:30:55;;;;;;;70.63;44.55;;;3.20;99.90;;;;;;5015512;28;20508;-85
2023/01/08 05:33:24;;;;;;;58.15;40.50;;;3.40;99.90;;;;;;5000114;28;20212;-86
2023/01/08 05:35:52;;;;;;;68.38;42.30;;;3.40;99.90;;;;;;4993767;28;20240;-87
2023/01/08 05:38:19;;;;;;;67.15;41.72;;;3.60;99.90;;;;;;5000133;28;20235;-86
2023/01/08 05:40:55;;;;;;;62.40;39.00;;;3.60;99.90;;;;;;4999868;28;20239;-86
2023/01/08 05:43:21;;;;;;;58.70;41.08;;;3.60;99.90;;;;;;5015019;28;20208;-87
2023/01/08 05:45:48;;;;;;;60.75;37.22;;;3.50;99.90;;;;;;5000254;28;20320;-86
2023/01/08 05:48:15;;;;;;;51.72;36.15;;;3.60;99.90;;;;;;4998605;28;20231;-87
2023/01/08 05:50:42;;;;;;;51.65;36.55;;;3.60;99.90;;;;;;4999985;28;20294;-86
2023/01/08 05:53:10;;;;;;;58.33;38.35;;;3.60;99.90;;;;;;4999874;28;20204;-85
2023/01/08 05:55:38;;;;;;;58.35;37.65;;;3.60;99.90;;;;;;4999490;28;20227;-86
2023/01/08 05:58:05;;;;;;;59.60;37.03;;;3.90;99.90;;;;;;4999875;28;20208;-85
2023/01/08 06:00:33;;;;;;;59.60;36.67;;;3.80;99.90;;;;;;4999009;28;20244;-84
2023/01/08 06:03:00;;;;;;;49.53;35.22;;;3.70;99.90;;;;;;5011272;28;20214;-84
2023/01/08 06:05:30;;;;;;;49.78;36.75;;;3.70;99.90;;;;;;4999597;28;20258;-85
2023/01/08 06:07:58;;;;;;;55.25;35.97;;;3.60;99.90;;;;;;4999556;28;20280;-85
2023/01/08 06:10:26;;;;;;;51.63;37.17;;;3.60;99.90;;;;;;4999164;28;20216;-86
2023/01/08 06:12:54;;;;;;;56.00;34.58;;;3.40;99.90;;;;;;5015161;28;20213;-88
2023/01/08 06:15:21;;;;;;;51.10;35.70;;;3.30;99.90;;;;;;5003484;28;20220;-87
2023/01/08 06:17:48;;;;;;;55.58;38.25;;;3.40;99.90;;;;;;4992736;28;20213;-88
2023/01/08 06:20:19;;;;;;;56.13;34.22;;;3.40;99.90;;;;;;5028801;28;20275;-84
2023/01/08 06:22:47;;;;;;;50.00;33.53;;;3.40;99.90;;;;;;4993094;28;20223;-86
2023/01/08 06:25:19;;;;;;;54.63;35.97;;;3.40;99.90;;;;;;4987940;28;20240;-85
2023/01/08 06:27:50;;;;;;;49.80;36.03;;;3.50;99.90;;;;;;5005380;28;20290;-86
2023/01/08 06:30:18;;;;;;;46.38;33.63;;;3.50;99.90;;;;;;5003344;28;20208;-83
2023/01/08 06:32:45;;;;;;;51.20;34.22;;;3.50;99.90;;;;;;5003649;28;20204;-83
2023/01/08 06:35:11;;;;;;;51.25;34.42;;;3.70;99.90;;;;;;5002985;28;20325;-86
2023/01/08 06:37:39;;;;;;;56.28;36.50;;;3.70;99.90;;;;;;5006626;28;20259;-84
2023/01/08 06:40:07;;;;;;;45.13;31.55;;;3.80;99.90;;;;;;5010837;28;20214;-84
2023/01/08 06:42:34;;;;;;;47.58;31.95;;;3.80;99.90;;;;;;5008398;28;20278;-85
2023/01/08 06:45:02;;;;;;;57.38;32.10;;;3.90;99.90;;;;;;5003375;28;20339;-86
2023/01/08 06:47:31;;;;;;;48.00;33.38;;;4.00;99.90;;;;;;5002854;28;20228;-85
2023/01/08 06:49:59;;;;;;;55.83;31.40;;;4.00;99.90;;;;;;5003899;28;20432;-85
2023/01/08 06:52:27;;;;;;;45.00;29.30;;;3.90;99.90;;;;;;5010380;28;20289;-84
2023/01/08 06:54:54;;;;;;;43.85;30.45;;;3.90;99.90;;;;;;5002948;28;20208;-85
2023/01/08 06:57:29;;;;;;;52.72;32.40;;;4.00;99.90;;;;;;5002983;28;20512;-84
2023/01/08 06:59:56;;;;;;;39.17;26.50;;;4.00;99.90;;;;;;4991812;28;20242;-84
2023/01/08 07:02:23;;;;;;;46.42;28.50;;;3.90;99.90;;;;;;5001385;28;20217;-83
2023/01/08 07:04:51;;;;;;;44.70;28.17;;;3.80;99.90;;;;;;5017753;28;20243;-85
2023/01/08 07:07:18;;;;;;;39.53;30.10;;;4.00;99.90;;;;;;5002650;28;20323;-84
2023/01/08 07:09:45;;;;;;;46.88;31.95;;;4.00;99.90;;;;;;5002405;28;20393;-84
2023/01/08 07:12:12;;;;;;;49.17;31.40;;;3.90;99.90;;;;;;5002523;28;20255;-84
2023/01/08 07:14:39;;;;;;;56.08;32.83;;;3.90;99.90;;;;;;5011998;28;20203;-84
2023/01/08 07:17:07;;;;;;;44.92;29.85;;;3.80;99.90;;;;;;5029355;28;20212;-84
2023/01/08 07:19:36;;;;;;;44.88;28.70;;;3.90;99.90;;;;;;5001299;28;20220;-84
2023/01/08 07:22:03;;;;;;;44.28;29.67;;;4.20;99.90;;;;;;5009989;28;20219;-83
2023/01/08 07:24:30;;;;;;;41.88;28.10;;;4.40;99.90;;;;;;5004469;28;20271;-85
2023/01/08 07:26:57;;;;;;;40.53;28.52;;;4.40;99.90;;;;;;5011746;28;20216;-86
2023/01/08 07:29:26;;;;;;;45.55;27.40;;;4.30;99.90;;;;;;5011016;28;20275;-85
2023/01/08 07:31:53;;;;;;;34.65;25.45;;;4.40;99.90;;;;;;5000416;28;20219;-85
2023/01/08 07:34:20;;;;;;;42.20;25.70;;;4.40;99.90;;;;;;5004167;28;20216;-85
2023/01/08 07:36:48;;;;;;;46.05;25.77;;;4.30;99.90;;;;;;5003353;28;20228;-85
2023/01/08 07:39:16;;;;;;;32.97;22.60;;;4.30;99.90;;;;;;5002035;28;20420;-87
2023/01/08 07:41:44;;;;;;;39.30;26.73;;;4.20;99.90;;;;;;5019703;28;20216;-84
2023/01/08 07:44:12;;;;;;;32.90;26.83;;;4.30;99.90;;;;;;5008757;28;20323;-87
2023/01/08 07:46:42;;;;;;;38.55;25.20;;;4.20;99.90;;;;;;5002704;28;20543;-86
2023/01/08 07:49:09;;;;;;;35.83;24.52;;;4.20;99.90;;;;;;5000953;28;20243;-84
2023/01/08 07:51:36;;;;;;;39.70;25.00;;;4.10;99.90;;;;;;5013675;28;20244;-84
2023/01/08 07:54:06;;;;;;;35.78;24.40;;;4.20;99.90;;;;;;5017237;28;20196;-83
2023/01/08 07:56:34;;;;;;;33.88;23.88;;;4.10;99.90;;;;;;5018170;28;20201;-85
2023/01/08 07:59:02;;;;;;;31.23;23.75;;;4.10;99.90;;;;;;5081122;22;20240;-84
2023/01/08 08:01:29;;;;;;;33.05;22.33;;;4.30;99.90;;;;;;5026075;28;20204;-84
2023/01/08 08:04:02;;;;;;;31.90;22.27;;;4.20;99.90;;;;;;4997085;28;20223;-83
2023/01/08 08:06:32;;;;;;;37.88;23.98;;;4.10;99.90;;;;;;5029979;28;20215;-87
2023/01/08 08:09:09;;;;;;;31.80;22.85;;;4.10;99.90;;;;;;5022123;28;20229;-83
2023/01/08 08:11:38;;;;;;;31.73;23.33;;;4.20;99.90;;;;;;5015155;28;20646;-84
2023/01/08 08:14:07;;;;;;;32.90;22.02;;;4.20;99.90;;;;;;5021719;28;20203;-85
2023/01/08 08:16:35;;;;;;;31.70;20.60;;;4.40;99.90;;;;;;5022057;28;20257;-84
2023/01/08 08:19:04;;;;;;;30.23;21.88;;;4.40;99.90;;;;;;5020702;28;20219;-87
2023/01/08 08:21:34;;;;;;;29.73;19.52;;;4.40;99.90;;;;;;5010818;28;20249;-85
2023/01/08 08:24:01;;;;;;;33.75;21.98;;;4.60;99.90;;;;;;5096152;22;20460;-85
2023/01/08 08:26:39;;;;;;;30.27;18.40;;;4.70;99.90;;;;;;5025776;28;20299;-87
2023/01/08 08:29:07;;;;;;;25.65;20.38;;;4.70;99.90;;;;;;5010861;28;20255;-86
2023/01/08 08:31:34;;;;;;;26.33;17.75;;;4.60;99.90;;;;;;5039607;28;20216;-86
2023/01/08 08:34:02;;;;;;;28.67;19.00;;;4.70;99.90;;;;;;5046476;28;20204;-85
2023/01/08 08:36:30;;;;;;;28.73;20.63;;;4.70;99.90;;;;;;5037890;28;20212;-87
2023/01/08 08:38:57;;;;;;;27.92;16.58;;;4.90;99.90;;;;;;5090007;22;20229;-88
2023/01/08 08:41:24;;;;;;;25.27;17.98;;;5.00;99.90;;;;;;5025670;28;20270;-86
2023/01/08 08:43:53;;;;;;;29.08;18.58;;;5.10;99.90;;;;;;5071289;22;20291;-87
2023/01/08 08:46:20;;;;;;;29.38;21.20;;;5.10;99.90;;;;;;5063863;28;20191;-87
2023/01/08 08:48:48;;;;;;;27.38;18.42;;;5.20;99.90;;;;;;5058656;28;20258;-87
2023/01/08 08:51:16;;;;;;;26.48;18.42;;;5.30;99.90;;;;;;5061789;28;20226;-86
2023/01/08 08:53:43;;;;;;;28.35;17.75;;;5.40;99.90;;;;;;5063789;28;20207;-86
2023/01/08 08:56:10;;;;;;;31.45;19.20;;;5.50;99.90;;;;;;5049289;28;20208;-85
2023/01/08 08:58:37;;;;;;;24.42;17.25;;;5.70;99.90;;;;;;5059379;28;20249;-89
2023/01/08 09:01:04;;;;;;;22.38;15.45;;;5.70;99.90;;;;;;5060535;28;20220;-87
2023/01/08 09:03:32;;;;;;;26.23;18.20;;;6.10;99.90;;;;;;5058060;28;20730;-87
2023/01/08 09:05:59;;;;;;;24.92;15.88;;;6.10;99.90;;;;;;5040627;28;20204;-87
2023/01/08 09:08:26;;;;;;;21.63;15.55;;;6.10;99.90;;;;;;5057411;28;20247;-85
2023/01/08 09:10:53;;;;;;;28.92;17.05;;;6.30;99.90;;;;;;5055785;28;20211;-87
2023/01/08 09:13:21;;;;;;;22.63;16.45;;;6.60;99.90;;;;;;5054791;28;20253;-89
2023/01/08 09:15:50;;;;;;;21.48;15.77;;;6.40;99.90;;;;;;5064074;28;20903;-87
2023/01/08 09:18:17;;;;;;;23.88;15.02;;;6.40;99.90;;;;;;5055639;28;20196;-85
2023/01/08 09:20:45;;;;;;;23.92;12.50;;;6.50;99.90;;;;;;5046617;28;20242;-86
2023/01/08 09:23:13;;;;;;;20.13;14.43;;;6.60;99.90;;;;;;5071236;28;20214;-83
2023/01/08 09:25:43;;;;;;;21.40;13.95;;;6.60;99.90;;;;;;5049273;28;20212;-85
2023/01/08 09:28:12;;;;;;;47.05;25.13;;;6.60;99.90;;;;;;5051597;28;20228;-82
2023/01/08 09:30:39;;;;;;;53.35;24.45;;;6.70;99.90;;;;;;5051285;28;20199;-84
2023/01/08 09:33:08;;;;;;;38.13;18.30;;;6.70;99.90;;;;;;5051552;28;20216;-89
2023/01/08 09:35:36;;;;;;;38.85;20.65;;;6.70;99.90;;;;;;5061926;28;20274;-82
2023/01/08 09:38:05;;;;;;;23.80;15.52;;;6.90;99.90;;;;;;5051973;28;20272;-85
2023/01/08 09:40:54;;;;;;;29.58;16.23;;;7.00;99.90;;;;;;5057526;28;20246;-83
2023/01/08 09:43:23;;;;;;;46.50;20.65;;;7.10;99.90;;;;;;5049673;28;20211;-86
2023/01/08 09:45:56;;;;;;;24.05;15.07;;;7.30;99.90;;;;;;5052155;28;20486;-86
2023/01/08 09:48:28;;;;;;;17.80;11.77;;;7.40;99.90;;;;;;5070556;28;20219;-88
2023/01/08 09:50:57;;;;;;;28.70;13.27;;;7.60;99.90;;;;;;5061296;28;20209;-85
2023/01/08 09:53:28;;;;;;;18.73;12.25;;;7.70;99.90;;;;;;5057585;28;20203;-87
2023/01/08 09:55:59;;;;;;;24.00;14.00;;;7.90;99.90;;;;;;5053663;28;20515;-87
2023/01/08 09:58:49;;;;;;;20.73;13.13;;;8.10;99.90;;;;;;5041761;28;20270;-83
2023/01/08 10:01:25;;;;;;;21.38;12.32;;;8.20;99.90;;;;;;5053505;28;20195;-86
2023/01/08 10:04:21;;;;;;;25.80;14.38;;;8.40;99.90;;;;;;5054140;28;20211;-84
2023/01/08 10:07:14;;;;;;;19.27;12.27;;;8.40;99.90;;;;;;5057671;28;20782;-83
2023/01/08 10:09:43;;;;;;;21.23;12.45;;;8.50;99.90;;;;;;5050863;28;20231;-84
2023/01/08 10:12:15;;;;;;;11.48;9.48;;;8.60;99.90;;;;;;5060995;28;20203;-84
2023/01/08 10:14:48;;;;;;;16.02;10.60;;;8.70;99.90;;;;;;5059589;28;20501;-84
2023/01/08 10:17:25;;;;;;;19.80;11.05;;;8.70;99.90;;;;;;5057537;28;20196;-84
2023/01/08 10:19:53;;;;;;;14.75;11.15;;;8.80;99.90;;;;;;5062345;28;20220;-84
2023/01/08 10:22:23;;;;;;;14.25;10.52;;;8.90;99.90;;;;;;5059260;28;20236;-86
2023/01/08 10:24:52;;;;;;;19.25;13.07;;;8.90;99.90;;;;;;5073500;28;20237;-86
2023/01/08 10:27:24;;;;;;;11.77;8.45;;;8.90;99.90;;;;;;5054919;28;20205;-86
2023/01/08 10:29:52;;;;;;;20.67;13.55;;;8.90;99.90;;;;;;5055554;28;20216;-86
2023/01/08 10:32:33;;;;;;;16.17;9.88;;;8.90;99.90;;;;;;5048347;28;20212;-86
2023/01/08 10:35:06;;;;;;;16.02;10.13;;;8.80;99.90;;;;;;5060075;28;20210;-87
2023/01/08 10:37:41;;;;;;;14.80;8.65;;;8.90;99.90;;;;;;5051043;28;20216;-85
2023/01/08 10:40:35;;;;;;;19.38;11.13;;;8.90;99.90;;;;;;5047619;28;20209;-83
2023/01/08 10:43:11;;;;;;;15.68;9.68;;;8.90;99.90;;;;;;5050244;28;20198;-84
2023/01/08 10:45:41;;;;;;;15.52;10.13;;;8.80;99.90;;;;;;5060358;28;20263;-86
2023/01/08 10:48:16;;;;;;;15.30;10.50;;;8.90;99.90;;;;;;5061723;28;20249;-83
2023/01/08 10:50:44;;;;;;;14.63;9.13;;;8.90;99.90;;;;;;5059601;28;20208;-86
2023/01/08 10:53:24;;;;;;;23.27;13.30;;;9.00;99.90;;;;;;5055353;28;20278;-85
2023/01/08 10:56:02;;;;;;;12.10;7.78;;;9.00;99.90;;;;;;5057583;28;20396;-83
2023/01/08 10:58:39;;;;;;;14.60;8.50;;;9.00;99.90;;;;;;5057476;28;20213;-83
2023/01/08 11:01:30;;;;;;;11.90;8.35;;;8.90;99.90;;;;;;5029093;28;20256;-83
2023/01/08 11:04:03;;;;;;;8.73;6.82;;;8.90;99.90;;;;;;5054725;28;20258;-83
2023/01/08 11:06:38;;;;;;;14.27;8.20;;;8.90;99.90;;;;;;5037482;28;20243;-83
2023/01/08 11:09:24;;;;;;;12.10;8.60;;;8.90;99.90;;;;;;5044597;28;20286;-83
2023/01/08 11:11:51;;;;;;;11.25;8.32;;;9.20;99.90;;;;;;5049290;28;20211;-83
2023/01/08 11:14:33;;;;;;;13.68;8.90;;;9.20;99.90;;;;;;5066892;28;20206;-85
2023/01/08 11:17:09;;;;;;;13.10;8.90;;;9.20;99.90;;;;;;5059261;28;20216;-85
2023/01/08 11:19:38;;;;;;;12.70;8.60;;;9.30;99.90;;;;;;5078312;28;20205;-83
2023/01/08 11:22:20;;;;;;;10.70;6.97;;;9.30;99.90;;;;;;5056870;28;20235;-86
2023/01/08 11:24:52;;;;;;;11.38;7.10;;;9.40;99.90;;;;;;5061414;28;20415;-86
2023/01/08 11:27:34;;;;;;;13.55;7.95;;;9.50;99.90;;;;;;5070464;28;20192;-85
2023/01/08 11:30:11;;;;;;;12.25;8.63;;;9.40;99.90;;;;;;5072247;28;20234;-85
2023/01/08 11:33:02;;;;;;;15.75;8.35;;;9.20;99.90;;;;;;5068230;28;20210;-83
2023/01/08 11:36:05;;;;;;;8.80;6.88;;;9.40;99.90;;;;;;5065121;28;20272;-85
2023/01/08 11:38:32;;;;;;;12.93;7.57;;;9.40;99.90;;;;;;5077851;28;20201;-85
2023/01/08 11:41:31;;;;;;;29.27;12.35;;;9.50;99.90;;;;;;5075941;28;20212;-83
2023/01/08 11:44:15;;;;;;;15.85;7.90;;;9.60;99.90;;;;;;5058343;28;20311;-86
2023/01/08 11:47:03;;;;;;;11.68;8.10;;;9.40;99.90;;;;;;5051504;28;20202;-85
2023/01/08 11:50:15;;;;;;;12.18;7.45;;;9.30;99.90;;;;;;5061680;28;20628;-84
2023/01/08 11:53:04;;;;;;;20.15;9.77;;;9.30;99.90;;;;;;5047028;28;20214;-84
2023/01/08 11:55:59;;;;;;;9.15;6.50;;;9.40;99.90;;;;;;5064552;28;20548;-85
2023/01/08 11:58:35;;;;;;;13.32;7.30;;;9.60;99.90;;;;;;5061867;28;20222;-84
2023/01/08 12:01:09;;;;;;;15.30;8.82;;;9.70;99.90;;;;;;5067073;28;20204;-87
2023/01/08 12:03:45;;;;;;;11.60;7.50;;;9.60;99.90;;;;;;5073275;28;20270;-88
2023/01/08 12:06:32;;;;;;;13.50;8.90;;;9.70;99.90;;;;;;5071823;28;20202;-87
2023/01/08 12:09:41;;;;;;;11.00;8.30;;;9.50;99.90;;;;;;5081960;28;20225;-87
2023/01/08 12:12:46;;;;;;;10.35;7.63;;;9.60;99.90;;;;;;5054177;28;20230;-85
2023/01/08 12:15:23;;;;;;;12.70;8.10;;;9.70;99.90;;;;;;5060702;28;20389;-87
2023/01/08 12:18:28;;;;;;;12.27;7.85;;;9.80;99.90;;;;;;5055026;28;20404;-85
2023/01/08 12:21:19;;;;;;;26.90;12.68;;;9.90;99.90;;;;;;5047451;28;20535;-85
2023/01/08 12:24:10;;;;;;;20.83;9.43;;;10.00;99.90;;;;;;5055707;28;20234;-84
2023/01/08 12:27:04;;;;;;;12.20;9.77;;;10.10;99.90;;;;;;5056034;28;20214;-83
2023/01/08 12:29:46;;;;;;;13.60;8.30;;;10.10;99.90;;;;;;5069825;28;20231;-84
2023/01/08 12:32:20;;;;;;;11.98;7.18;;;10.10;99.90;;;;;;5062527;28;20206;-83
2023/01/08 12:35:14;;;;;;;13.70;8.15;;;10.10;99.90;;;;;;5057885;28;20230;-84
2023/01/08 12:37:53;;;;;;;23.80;11.93;;;10.10;99.90;;;;;;5067727;28;20206;-87
2023/01/08 12:40:44;;;;;;;27.48;14.05;;;10.10;99.90;;;;;;5057593;28;20688;-89
2023/01/08 12:43:20;;;;;;;16.58;9.07;;;10.10;99.90;;;;;;5057964;28;20195;-84
2023/01/08 12:45:53;;;;;;;19.08;11.45;;;10.00;99.90;;;;;;5061649;28;20268;-87
2023/01/08 12:48:29;;;;;;;11.82;8.60;;;9.90;99.90;;;;;;5072711;28;20253;-85
2023/01/08 12:51:18;;;;;;;13.70;9.27;;;10.00;99.90;;;;;;5052159;28;20202;-82
2023/01/08 12:53:45;;;;;;;13.60;8.02;;;9.80;99.90;;;;;;5070060;28;20211;-84
2023/01/08 12:56:22;;;;;;;13.75;8.75;;;9.60;99.90;;;;;;5070925;28;20198;-83
2023/01/08 12:59:08;;;;;;;12.57;9.05;;;9.60;99.90;;;;;;5053468;28;20240;-82
2023/01/08 13:01:53;;;;;;;26.60;13.57;;;9.40;99.90;;;;;;5058922;28;20240;-82
2023/01/08 13:04:20;;;;;;;21.23;13.63;;;9.40;99.90;;;;;;5060802;28;20225;-84
2023/01/08 13:07:18;;;;;;;18.67;9.88;;;9.40;99.90;;;;;;5056981;28;20489;-83
2023/01/08 13:09:58;;;;;;;25.77;12.35;;;9.30;99.90;;;;;;5071366;28;20302;-84